sensor_id;sensor_type;location;lat;lon;timestamp;temperature;humidity
24426;DHT22;12611;44.446;26.000;2022-12-20T00:01:33;4.20;85.80
24426;DHT22;12611;44.446;26.000;2022-12-20T00:04:04;4.10;86.10
24426;DHT22;12611;44.446;26.000;2022-12-20T00:06:33;4.10;86.10
24426;DHT22;12611;44.446;26.000;2022-12-20T00:09:04;4.10;86.00
24426;DHT22;12611;44.446;26.000;2022-12-20T00:11:33;4.10;85.90
24426;DHT22;12611;44.446;26.000;2022-12-20T00:14:02;4.10;85.90
24426;DHT22;12611;44.446;26.000;2022-12-20T00:16:30;4.10;85.90
24426;DHT22;12611;44.446;26.000;2022-12-20T00:19:00;4.00;85.80
24426;DHT22;12611;44.446;26.000;2022-12-20T00:21:31;4.00;86.50
24426;DHT22;12611;44.446;26.000;2022-12-20T00:24:00;3.90;85.60
24426;DHT22;12611;44.446;26.000;2022-12-20T00:26:30;3.90;86.50
24426;DHT22;12611;44.446;26.000;2022-12-20T00:28:59;3.90;86.00
24426;DHT22;12611;44.446;26.000;2022-12-20T00:31:30;3.90;86.10
24426;DHT22;12611;44.446;26.000;2022-12-20T00:34:00;3.90;85.90
24426;DHT22;12611;44.446;26.000;2022-12-20T00:36:31;3.90;85.90
24426;DHT22;12611;44.446;26.000;2022-12-20T00:39:00;3.90;85.90
24426;DHT22;12611;44.446;26.000;2022-12-20T00:41:30;3.80;85.90
24426;DHT22;12611;44.446;26.000;2022-12-20T00:44:00;3.80;85.90
24426;DHT22;12611;44.446;26.000;2022-12-20T00:46:29;3.80;86.00
24426;DHT22;12611;44.446;26.000;2022-12-20T00:48:58;3.80;86.10
24426;DHT22;12611;44.446;26.000;2022-12-20T00:51:28;3.80;86.10
24426;DHT22;12611;44.446;26.000;2022-12-20T00:53:58;3.70;86.00
24426;DHT22;12611;44.446;26.000;2022-12-20T00:56:27;3.80;86.00
24426;DHT22;12611;44.446;26.000;2022-12-20T00:58:57;3.70;86.00
24426;DHT22;12611;44.446;26.000;2022-12-20T01:01:27;3.70;86.00
24426;DHT22;12611;44.446;26.000;2022-12-20T01:03:57;3.70;85.90
24426;DHT22;12611;44.446;26.000;2022-12-20T01:06:26;3.70;85.90
24426;DHT22;12611;44.446;26.000;2022-12-20T01:08:55;3.70;85.90
24426;DHT22;12611;44.446;26.000;2022-12-20T01:11:26;3.60;85.80
24426;DHT22;12611;44.446;26.000;2022-12-20T01:13:58;3.60;85.90
24426;DHT22;12611;44.446;26.000;2022-12-20T01:16:29;3.60;85.90
24426;DHT22;12611;44.446;26.000;2022-12-20T01:18:58;3.60;85.90
24426;DHT22;12611;44.446;26.000;2022-12-20T01:21:26;3.60;86.00
24426;DHT22;12611;44.446;26.000;2022-12-20T01:23:55;3.50;86.00
24426;DHT22;12611;44.446;26.000;2022-12-20T01:26:27;3.60;86.00
24426;DHT22;12611;44.446;26.000;2022-12-20T01:28:57;3.50;86.00
24426;DHT22;12611;44.446;26.000;2022-12-20T01:31:27;3.50;86.00
24426;DHT22;12611;44.446;26.000;2022-12-20T01:33:56;3.50;86.00
24426;DHT22;12611;44.446;26.000;2022-12-20T01:36:26;3.50;86.00
24426;DHT22;12611;44.446;26.000;2022-12-20T01:38:56;3.40;86.00
24426;DHT22;12611;44.446;26.000;2022-12-20T01:41:27;3.40;86.10
24426;DHT22;12611;44.446;26.000;2022-12-20T01:43:57;3.40;86.10
24426;DHT22;12611;44.446;26.000;2022-12-20T01:46:28;3.40;86.00
24426;DHT22;12611;44.446;26.000;2022-12-20T01:49:00;3.30;86.00
24426;DHT22;12611;44.446;26.000;2022-12-20T01:51:35;3.30;86.10
24426;DHT22;12611;44.446;26.000;2022-12-20T01:54:09;3.30;86.10
24426;DHT22;12611;44.446;26.000;2022-12-20T01:56:42;3.30;86.10
24426;DHT22;12611;44.446;26.000;2022-12-20T01:59:12;3.30;86.20
24426;DHT22;12611;44.446;26.000;2022-12-20T02:01:41;3.20;86.30
24426;DHT22;12611;44.446;26.000;2022-12-20T02:04:11;3.30;86.50
24426;DHT22;12611;44.446;26.000;2022-12-20T02:06:39;3.20;86.60
24426;DHT22;12611;44.446;26.000;2022-12-20T02:09:07;3.20;86.60
24426;DHT22;12611;44.446;26.000;2022-12-20T02:11:49;3.20;86.90
24426;DHT22;12611;44.446;26.000;2022-12-20T02:14:33;3.10;86.90
24426;DHT22;12611;44.446;26.000;2022-12-20T02:17:09;3.10;87.20
24426;DHT22;12611;44.446;26.000;2022-12-20T02:22:50;3.10;87.50
24426;DHT22;12611;44.446;26.000;2022-12-20T02:25:44;3.10;87.70
24426;DHT22;12611;44.446;26.000;2022-12-20T02:28:28;3.00;87.90
24426;DHT22;12611;44.446;26.000;2022-12-20T02:31:06;3.00;88.00
24426;DHT22;12611;44.446;26.000;2022-12-20T02:33:36;3.00;88.10
24426;DHT22;12611;44.446;26.000;2022-12-20T02:36:05;3.00;88.10
24426;DHT22;12611;44.446;26.000;2022-12-20T02:38:36;3.00;88.20
24426;DHT22;12611;44.446;26.000;2022-12-20T02:41:07;2.90;88.20
24426;DHT22;12611;44.446;26.000;2022-12-20T02:43:40;2.90;88.20
24426;DHT22;12611;44.446;26.000;2022-12-20T02:46:28;2.90;88.30
24426;DHT22;12611;44.446;26.000;2022-12-20T02:49:01;2.90;88.30
24426;DHT22;12611;44.446;26.000;2022-12-20T02:51:30;2.90;88.50
24426;DHT22;12611;44.446;26.000;2022-12-20T02:53:59;2.80;88.50
24426;DHT22;12611;44.446;26.000;2022-12-20T02:56:32;2.80;88.50
24426;DHT22;12611;44.446;26.000;2022-12-20T02:59:05;2.80;88.50
24426;DHT22;12611;44.446;26.000;2022-12-20T03:01:39;2.80;88.60
24426;DHT22;12611;44.446;26.000;2022-12-20T03:04:08;2.80;88.70
24426;DHT22;12611;44.446;26.000;2022-12-20T03:06:38;2.80;88.70
24426;DHT22;12611;44.446;26.000;2022-12-20T03:09:06;2.80;88.70
24426;DHT22;12611;44.446;26.000;2022-12-20T03:11:35;2.80;88.70
24426;DHT22;12611;44.446;26.000;2022-12-20T03:14:03;2.80;88.80
24426;DHT22;12611;44.446;26.000;2022-12-20T03:16:31;2.80;88.80
24426;DHT22;12611;44.446;26.000;2022-12-20T03:19:01;2.80;88.80
24426;DHT22;12611;44.446;26.000;2022-12-20T03:21:29;2.70;88.70
24426;DHT22;12611;44.446;26.000;2022-12-20T03:23:58;2.70;88.70
24426;DHT22;12611;44.446;26.000;2022-12-20T03:26:26;2.70;88.80
24426;DHT22;12611;44.446;26.000;2022-12-20T03:28:54;2.70;88.80
24426;DHT22;12611;44.446;26.000;2022-12-20T03:31:22;2.60;89.30
24426;DHT22;12611;44.446;26.000;2022-12-20T03:33:51;2.60;89.40
24426;DHT22;12611;44.446;26.000;2022-12-20T03:36:20;2.60;89.40
24426;DHT22;12611;44.446;26.000;2022-12-20T03:38:50;2.60;89.40
24426;DHT22;12611;44.446;26.000;2022-12-20T03:41:19;2.60;89.30
24426;DHT22;12611;44.446;26.000;2022-12-20T03:43:48;2.60;89.60
24426;DHT22;12611;44.446;26.000;2022-12-20T03:46:17;2.70;89.60
24426;DHT22;12611;44.446;26.000;2022-12-20T03:48:45;2.70;89.40
24426;DHT22;12611;44.446;26.000;2022-12-20T03:51:14;2.60;89.10
24426;DHT22;12611;44.446;26.000;2022-12-20T03:53:43;2.60;89.00
24426;DHT22;12611;44.446;26.000;2022-12-20T03:56:12;2.60;89.20
24426;DHT22;12611;44.446;26.000;2022-12-20T03:58:40;2.60;89.30
24426;DHT22;12611;44.446;26.000;2022-12-20T04:01:19;2.60;89.30
24426;DHT22;12611;44.446;26.000;2022-12-20T04:03:48;2.70;89.30
24426;DHT22;12611;44.446;26.000;2022-12-20T04:06:17;2.70;89.10
24426;DHT22;12611;44.446;26.000;2022-12-20T04:08:47;2.60;89.10
24426;DHT22;12611;44.446;26.000;2022-12-20T04:11:16;2.60;89.00
24426;DHT22;12611;44.446;26.000;2022-12-20T04:13:45;2.60;88.90
24426;DHT22;12611;44.446;26.000;2022-12-20T04:16:16;2.60;88.90
24426;DHT22;12611;44.446;26.000;2022-12-20T04:18:44;2.60;88.90
24426;DHT22;12611;44.446;26.000;2022-12-20T04:21:13;2.60;88.80
24426;DHT22;12611;44.446;26.000;2022-12-20T04:23:42;2.60;88.80
24426;DHT22;12611;44.446;26.000;2022-12-20T04:26:12;2.60;88.70
24426;DHT22;12611;44.446;26.000;2022-12-20T04:28:40;2.60;88.60
24426;DHT22;12611;44.446;26.000;2022-12-20T04:31:09;2.60;88.60
24426;DHT22;12611;44.446;26.000;2022-12-20T04:33:37;2.60;89.40
24426;DHT22;12611;44.446;26.000;2022-12-20T04:36:06;2.60;89.10
24426;DHT22;12611;44.446;26.000;2022-12-20T04:38:35;2.60;89.10
24426;DHT22;12611;44.446;26.000;2022-12-20T04:41:03;2.60;89.00
24426;DHT22;12611;44.446;26.000;2022-12-20T04:43:33;2.60;89.00
24426;DHT22;12611;44.446;26.000;2022-12-20T04:46:01;2.60;89.00
24426;DHT22;12611;44.446;26.000;2022-12-20T04:48:30;2.60;88.90
24426;DHT22;12611;44.446;26.000;2022-12-20T04:51:18;2.60;88.80
24426;DHT22;12611;44.446;26.000;2022-12-20T04:53:47;2.60;88.80
24426;DHT22;12611;44.446;26.000;2022-12-20T04:56:16;2.60;88.80
24426;DHT22;12611;44.446;26.000;2022-12-20T04:58:48;2.50;88.80
24426;DHT22;12611;44.446;26.000;2022-12-20T05:01:17;2.50;88.80
24426;DHT22;12611;44.446;26.000;2022-12-20T05:03:46;2.50;88.90
24426;DHT22;12611;44.446;26.000;2022-12-20T05:06:15;2.50;88.80
24426;DHT22;12611;44.446;26.000;2022-12-20T05:08:44;2.50;89.00
24426;DHT22;12611;44.446;26.000;2022-12-20T05:11:12;2.50;89.00
24426;DHT22;12611;44.446;26.000;2022-12-20T05:13:40;2.50;89.00
24426;DHT22;12611;44.446;26.000;2022-12-20T05:16:10;2.40;89.00
24426;DHT22;12611;44.446;26.000;2022-12-20T05:18:39;2.40;89.00
24426;DHT22;12611;44.446;26.000;2022-12-20T05:21:14;2.50;89.00
24426;DHT22;12611;44.446;26.000;2022-12-20T05:24:00;2.50;89.00
24426;DHT22;12611;44.446;26.000;2022-12-20T05:26:46;2.50;89.00
24426;DHT22;12611;44.446;26.000;2022-12-20T05:29:14;2.50;89.30
24426;DHT22;12611;44.446;26.000;2022-12-20T05:31:45;2.50;89.40
24426;DHT22;12611;44.446;26.000;2022-12-20T05:34:13;2.50;89.40
24426;DHT22;12611;44.446;26.000;2022-12-20T05:36:42;2.50;89.60
24426;DHT22;12611;44.446;26.000;2022-12-20T05:39:10;2.50;89.50
24426;DHT22;12611;44.446;26.000;2022-12-20T05:41:39;2.50;89.50
24426;DHT22;12611;44.446;26.000;2022-12-20T05:44:07;2.50;89.50
24426;DHT22;12611;44.446;26.000;2022-12-20T05:46:35;2.50;89.50
24426;DHT22;12611;44.446;26.000;2022-12-20T05:49:05;2.50;89.50
24426;DHT22;12611;44.446;26.000;2022-12-20T05:51:34;2.50;89.60
24426;DHT22;12611;44.446;26.000;2022-12-20T05:54:02;2.50;89.80
24426;DHT22;12611;44.446;26.000;2022-12-20T05:56:31;2.50;89.90
24426;DHT22;12611;44.446;26.000;2022-12-20T05:58:59;2.50;89.80
24426;DHT22;12611;44.446;26.000;2022-12-20T06:01:28;2.50;89.70
24426;DHT22;12611;44.446;26.000;2022-12-20T06:03:56;2.50;89.60
24426;DHT22;12611;44.446;26.000;2022-12-20T06:06:26;2.50;89.60
24426;DHT22;12611;44.446;26.000;2022-12-20T06:08:54;2.60;89.60
24426;DHT22;12611;44.446;26.000;2022-12-20T06:11:23;2.60;89.60
24426;DHT22;12611;44.446;26.000;2022-12-20T06:13:56;2.60;89.70
24426;DHT22;12611;44.446;26.000;2022-12-20T06:16:25;2.60;89.60
24426;DHT22;12611;44.446;26.000;2022-12-20T06:18:54;2.60;89.60
24426;DHT22;12611;44.446;26.000;2022-12-20T06:21:23;2.60;90.00
24426;DHT22;12611;44.446;26.000;2022-12-20T06:23:52;2.60;90.00
24426;DHT22;12611;44.446;26.000;2022-12-20T06:26:21;2.70;90.00
24426;DHT22;12611;44.446;26.000;2022-12-20T06:28:49;2.70;89.90
24426;DHT22;12611;44.446;26.000;2022-12-20T06:31:20;2.70;89.90
24426;DHT22;12611;44.446;26.000;2022-12-20T06:33:49;2.70;90.00
24426;DHT22;12611;44.446;26.000;2022-12-20T06:36:17;2.70;90.00
24426;DHT22;12611;44.446;26.000;2022-12-20T06:38:46;2.80;90.40
24426;DHT22;12611;44.446;26.000;2022-12-20T06:41:16;2.80;90.00
24426;DHT22;12611;44.446;26.000;2022-12-20T06:43:44;2.80;90.00
24426;DHT22;12611;44.446;26.000;2022-12-20T06:46:12;2.80;90.00
24426;DHT22;12611;44.446;26.000;2022-12-20T06:48:41;2.80;90.00
24426;DHT22;12611;44.446;26.000;2022-12-20T06:51:09;2.80;90.00
24426;DHT22;12611;44.446;26.000;2022-12-20T06:53:38;2.90;90.00
24426;DHT22;12611;44.446;26.000;2022-12-20T06:56:06;2.90;90.00
24426;DHT22;12611;44.446;26.000;2022-12-20T06:58:36;2.90;90.00
24426;DHT22;12611;44.446;26.000;2022-12-20T07:01:04;2.90;90.00
24426;DHT22;12611;44.446;26.000;2022-12-20T07:03:33;3.00;90.00
24426;DHT22;12611;44.446;26.000;2022-12-20T07:06:01;3.00;90.10
24426;DHT22;12611;44.446;26.000;2022-12-20T07:08:30;3.00;90.10
24426;DHT22;12611;44.446;26.000;2022-12-20T07:11:03;3.00;90.00
24426;DHT22;12611;44.446;26.000;2022-12-20T07:13:31;3.10;90.10
24426;DHT22;12611;44.446;26.000;2022-12-20T07:16:02;3.10;90.10
24426;DHT22;12611;44.446;26.000;2022-12-20T07:18:30;3.10;90.10
24426;DHT22;12611;44.446;26.000;2022-12-20T07:21:02;3.20;90.20
24426;DHT22;12611;44.446;26.000;2022-12-20T07:23:30;3.20;90.20
24426;DHT22;12611;44.446;26.000;2022-12-20T07:26:00;3.20;90.40
24426;DHT22;12611;44.446;26.000;2022-12-20T07:28:30;3.30;90.40
24426;DHT22;12611;44.446;26.000;2022-12-20T07:31:02;3.30;90.30
24426;DHT22;12611;44.446;26.000;2022-12-20T07:33:31;3.40;90.20
24426;DHT22;12611;44.446;26.000;2022-12-20T07:36:00;3.40;90.20
24426;DHT22;12611;44.446;26.000;2022-12-20T07:38:29;3.40;90.30
24426;DHT22;12611;44.446;26.000;2022-12-20T07:40:57;3.50;90.20
24426;DHT22;12611;44.446;26.000;2022-12-20T07:43:26;3.50;90.20
24426;DHT22;12611;44.446;26.000;2022-12-20T07:45:55;3.60;90.10
24426;DHT22;12611;44.446;26.000;2022-12-20T07:48:25;3.60;90.00
24426;DHT22;12611;44.446;26.000;2022-12-20T07:50:57;3.60;89.90
24426;DHT22;12611;44.446;26.000;2022-12-20T07:53:26;3.70;89.50
24426;DHT22;12611;44.446;26.000;2022-12-20T07:55:57;3.70;89.50
24426;DHT22;12611;44.446;26.000;2022-12-20T07:58:26;3.80;89.60
24426;DHT22;12611;44.446;26.000;2022-12-20T08:00:56;3.80;89.30
24426;DHT22;12611;44.446;26.000;2022-12-20T08:03:29;3.90;89.30
24426;DHT22;12611;44.446;26.000;2022-12-20T08:06:28;3.90;89.20
24426;DHT22;12611;44.446;26.000;2022-12-20T08:08:58;4.00;89.20
24426;DHT22;12611;44.446;26.000;2022-12-20T08:11:28;4.00;88.60
24426;DHT22;12611;44.446;26.000;2022-12-20T08:13:57;4.10;88.40
24426;DHT22;12611;44.446;26.000;2022-12-20T08:16:25;4.10;87.80
24426;DHT22;12611;44.446;26.000;2022-12-20T08:18:55;4.10;88.00
24426;DHT22;12611;44.446;26.000;2022-12-20T08:21:24;4.20;88.00
24426;DHT22;12611;44.446;26.000;2022-12-20T08:23:52;4.20;87.90
24426;DHT22;12611;44.446;26.000;2022-12-20T08:26:20;4.30;88.10
24426;DHT22;12611;44.446;26.000;2022-12-20T08:28:49;4.40;88.10
24426;DHT22;12611;44.446;26.000;2022-12-20T08:31:32;4.30;87.50
24426;DHT22;12611;44.446;26.000;2022-12-20T08:34:07;4.40;87.70
24426;DHT22;12611;44.446;26.000;2022-12-20T08:36:36;4.50;87.90
24426;DHT22;12611;44.446;26.000;2022-12-20T08:39:05;4.60;87.90
24426;DHT22;12611;44.446;26.000;2022-12-20T08:41:34;4.60;87.70
24426;DHT22;12611;44.446;26.000;2022-12-20T08:44:03;4.60;86.60
24426;DHT22;12611;44.446;26.000;2022-12-20T08:46:32;4.70;86.50
24426;DHT22;12611;44.446;26.000;2022-12-20T08:49:00;4.70;86.30
24426;DHT22;12611;44.446;26.000;2022-12-20T08:51:30;4.70;85.60
24426;DHT22;12611;44.446;26.000;2022-12-20T08:53:59;4.80;85.40
24426;DHT22;12611;44.446;26.000;2022-12-20T08:56:28;4.80;85.20
24426;DHT22;12611;44.446;26.000;2022-12-20T08:58:58;4.80;85.50
24426;DHT22;12611;44.446;26.000;2022-12-20T09:01:27;4.90;85.20
24426;DHT22;12611;44.446;26.000;2022-12-20T09:03:56;4.90;85.50
24426;DHT22;12611;44.446;26.000;2022-12-20T09:06:25;5.00;85.40
24426;DHT22;12611;44.446;26.000;2022-12-20T09:08:55;5.00;85.20
24426;DHT22;12611;44.446;26.000;2022-12-20T09:11:25;5.00;84.80
24426;DHT22;12611;44.446;26.000;2022-12-20T09:13:55;5.10;84.80
24426;DHT22;12611;44.446;26.000;2022-12-20T09:16:25;5.10;84.60
24426;DHT22;12611;44.446;26.000;2022-12-20T09:18:56;5.10;83.90
24426;DHT22;12611;44.446;26.000;2022-12-20T09:21:31;5.10;83.00
24426;DHT22;12611;44.446;26.000;2022-12-20T09:24:01;5.10;83.10
24426;DHT22;12611;44.446;26.000;2022-12-20T09:26:29;5.20;83.60
24426;DHT22;12611;44.446;26.000;2022-12-20T09:28:58;5.20;83.20
24426;DHT22;12611;44.446;26.000;2022-12-20T09:31:28;5.20;83.50
24426;DHT22;12611;44.446;26.000;2022-12-20T09:33:57;5.30;83.80
24426;DHT22;12611;44.446;26.000;2022-12-20T09:36:28;5.30;83.30
24426;DHT22;12611;44.446;26.000;2022-12-20T09:38:57;5.30;83.10
24426;DHT22;12611;44.446;26.000;2022-12-20T09:41:30;5.30;83.50
24426;DHT22;12611;44.446;26.000;2022-12-20T09:44:04;5.30;83.10
24426;DHT22;12611;44.446;26.000;2022-12-20T09:46:33;5.40;83.50
24426;DHT22;12611;44.446;26.000;2022-12-20T09:49:02;5.40;83.10
24426;DHT22;12611;44.446;26.000;2022-12-20T09:51:50;5.50;83.20
24426;DHT22;12611;44.446;26.000;2022-12-20T09:54:26;5.50;83.00
24426;DHT22;12611;44.446;26.000;2022-12-20T09:57:06;5.50;82.90
24426;DHT22;12611;44.446;26.000;2022-12-20T09:59:39;5.50;82.80
24426;DHT22;12611;44.446;26.000;2022-12-20T10:06:24;5.60;82.80
24426;DHT22;12611;44.446;26.000;2022-12-20T10:12:26;5.70;83.30
24426;DHT22;12611;44.446;26.000;2022-12-20T10:15:13;5.80;83.70
24426;DHT22;12611;44.446;26.000;2022-12-20T10:17:53;5.90;83.30
24426;DHT22;12611;44.446;26.000;2022-12-20T10:20:37;6.00;83.40
24426;DHT22;12611;44.446;26.000;2022-12-20T10:23:14;6.00;82.50
24426;DHT22;12611;44.446;26.000;2022-12-20T10:25:45;6.10;82.70
24426;DHT22;12611;44.446;26.000;2022-12-20T10:28:16;6.10;83.10
24426;DHT22;12611;44.446;26.000;2022-12-20T10:30:47;6.20;82.40
24426;DHT22;12611;44.446;26.000;2022-12-20T10:33:20;6.20;81.20
24426;DHT22;12611;44.446;26.000;2022-12-20T10:35:49;6.20;81.10
24426;DHT22;12611;44.446;26.000;2022-12-20T10:38:18;6.20;81.10
24426;DHT22;12611;44.446;26.000;2022-12-20T10:40:59;6.30;81.00
24426;DHT22;12611;44.446;26.000;2022-12-20T10:43:53;6.30;80.90
24426;DHT22;12611;44.446;26.000;2022-12-20T10:46:35;6.20;80.50
24426;DHT22;12611;44.446;26.000;2022-12-20T10:49:26;6.30;80.80
24426;DHT22;12611;44.446;26.000;2022-12-20T10:51:59;6.30;80.80
24426;DHT22;12611;44.446;26.000;2022-12-20T10:54:31;6.30;80.50
24426;DHT22;12611;44.446;26.000;2022-12-20T10:57:01;6.40;80.40
24426;DHT22;12611;44.446;26.000;2022-12-20T10:59:34;6.30;80.30
24426;DHT22;12611;44.446;26.000;2022-12-20T11:02:23;6.40;80.30
24426;DHT22;12611;44.446;26.000;2022-12-20T11:05:23;6.40;80.50
24426;DHT22;12611;44.446;26.000;2022-12-20T11:07:54;6.50;80.20
24426;DHT22;12611;44.446;26.000;2022-12-20T11:10:43;6.50;80.20
24426;DHT22;12611;44.446;26.000;2022-12-20T11:13:21;6.60;80.40
24426;DHT22;12611;44.446;26.000;2022-12-20T11:15:55;6.60;80.10
24426;DHT22;12611;44.446;26.000;2022-12-20T11:18:37;6.60;79.40
24426;DHT22;12611;44.446;26.000;2022-12-20T11:21:17;6.60;79.30
24426;DHT22;12611;44.446;26.000;2022-12-20T11:24:01;6.60;79.10
24426;DHT22;12611;44.446;26.000;2022-12-20T11:26:54;6.60;78.80
24426;DHT22;12611;44.446;26.000;2022-12-20T11:29:37;6.60;79.40
24426;DHT22;12611;44.446;26.000;2022-12-20T11:32:21;6.60;79.30
24426;DHT22;12611;44.446;26.000;2022-12-20T11:35:02;6.60;79.20
24426;DHT22;12611;44.446;26.000;2022-12-20T11:37:39;6.70;79.10
24426;DHT22;12611;44.446;26.000;2022-12-20T11:40:25;6.60;78.80
24426;DHT22;12611;44.446;26.000;2022-12-20T11:43:29;6.60;78.60
24426;DHT22;12611;44.446;26.000;2022-12-20T11:46:33;6.60;78.90
24426;DHT22;12611;44.446;26.000;2022-12-20T11:49:16;6.70;79.30
24426;DHT22;12611;44.446;26.000;2022-12-20T11:51:57;6.70;79.40
24426;DHT22;12611;44.446;26.000;2022-12-20T11:54:30;6.70;79.40
24426;DHT22;12611;44.446;26.000;2022-12-20T11:57:03;6.80;79.70
24426;DHT22;12611;44.446;26.000;2022-12-20T11:59:36;6.70;79.40
24426;DHT22;12611;44.446;26.000;2022-12-20T12:02:12;6.80;79.70
24426;DHT22;12611;44.446;26.000;2022-12-20T12:04:44;6.80;79.70
24426;DHT22;12611;44.446;26.000;2022-12-20T12:07:18;6.80;79.70
24426;DHT22;12611;44.446;26.000;2022-12-20T12:09:52;6.80;79.40
24426;DHT22;12611;44.446;26.000;2022-12-20T12:12:25;6.80;79.40
24426;DHT22;12611;44.446;26.000;2022-12-20T12:14:59;6.80;79.40
24426;DHT22;12611;44.446;26.000;2022-12-20T12:17:41;6.80;79.50
24426;DHT22;12611;44.446;26.000;2022-12-20T12:20:23;6.80;79.40
24426;DHT22;12611;44.446;26.000;2022-12-20T12:22:56;6.80;79.50
24426;DHT22;12611;44.446;26.000;2022-12-20T12:25:26;6.80;79.40
24426;DHT22;12611;44.446;26.000;2022-12-20T12:28:03;6.80;79.20
24426;DHT22;12611;44.446;26.000;2022-12-20T12:30:37;6.90;79.20
24426;DHT22;12611;44.446;26.000;2022-12-20T12:33:13;6.80;78.60
24426;DHT22;12611;44.446;26.000;2022-12-20T12:36:17;6.90;78.60
24426;DHT22;12611;44.446;26.000;2022-12-20T12:39:15;6.90;78.70
24426;DHT22;12611;44.446;26.000;2022-12-20T12:42:10;7.00;78.60
24426;DHT22;12611;44.446;26.000;2022-12-20T12:44:45;7.00;78.80
24426;DHT22;12611;44.446;26.000;2022-12-20T12:47:19;6.90;78.20
24426;DHT22;12611;44.446;26.000;2022-12-20T12:49:51;7.00;78.40
24426;DHT22;12611;44.446;26.000;2022-12-20T12:52:43;7.00;78.40
24426;DHT22;12611;44.446;26.000;2022-12-20T12:55:41;7.10;78.30
24426;DHT22;12611;44.446;26.000;2022-12-20T12:58:30;7.10;78.60
24426;DHT22;12611;44.446;26.000;2022-12-20T13:01:00;7.20;78.50
24426;DHT22;12611;44.446;26.000;2022-12-20T13:09:49;7.30;78.50
24426;DHT22;12611;44.446;26.000;2022-12-20T13:12:47;7.30;78.20
24426;DHT22;12611;44.446;26.000;2022-12-20T13:18:27;7.30;78.00
24426;DHT22;12611;44.446;26.000;2022-12-20T13:21:15;7.40;78.00
24426;DHT22;12611;44.446;26.000;2022-12-20T13:23:44;7.30;77.80
24426;DHT22;12611;44.446;26.000;2022-12-20T13:26:49;7.30;78.00
24426;DHT22;12611;44.446;26.000;2022-12-20T13:29:26;7.30;78.00
24426;DHT22;12611;44.446;26.000;2022-12-20T13:31:54;7.30;77.90
24426;DHT22;12611;44.446;26.000;2022-12-20T13:34:38;7.40;77.80
24426;DHT22;12611;44.446;26.000;2022-12-20T13:37:50;7.50;77.70
24426;DHT22;12611;44.446;26.000;2022-12-20T13:40:29;7.60;77.40
24426;DHT22;12611;44.446;26.000;2022-12-20T13:43:05;7.80;77.20
24426;DHT22;12611;44.446;26.000;2022-12-20T13:45:37;7.80;77.20
24426;DHT22;12611;44.446;26.000;2022-12-20T13:48:11;7.80;76.80
24426;DHT22;12611;44.446;26.000;2022-12-20T13:50:48;7.70;77.00
24426;DHT22;12611;44.446;26.000;2022-12-20T13:53:18;7.60;77.20
24426;DHT22;12611;44.446;26.000;2022-12-20T13:55:48;7.50;77.40
24426;DHT22;12611;44.446;26.000;2022-12-20T13:58:19;7.60;77.50
24426;DHT22;12611;44.446;26.000;2022-12-20T14:00:49;7.50;77.50
24426;DHT22;12611;44.446;26.000;2022-12-20T14:03:23;7.50;77.60
24426;DHT22;12611;44.446;26.000;2022-12-20T14:05:56;7.60;77.60
24426;DHT22;12611;44.446;26.000;2022-12-20T14:08:27;7.50;77.80
24426;DHT22;12611;44.446;26.000;2022-12-20T14:11:08;7.40;77.80
24426;DHT22;12611;44.446;26.000;2022-12-20T14:13:38;7.30;77.90
24426;DHT22;12611;44.446;26.000;2022-12-20T14:16:09;7.20;78.00
24426;DHT22;12611;44.446;26.000;2022-12-20T14:18:37;7.10;78.30
24426;DHT22;12611;44.446;26.000;2022-12-20T14:21:08;7.00;78.40
24426;DHT22;12611;44.446;26.000;2022-12-20T14:23:39;7.00;78.80
24426;DHT22;12611;44.446;26.000;2022-12-20T14:26:11;6.90;78.90
24426;DHT22;12611;44.446;26.000;2022-12-20T14:32:35;6.80;79.30
24426;DHT22;12611;44.446;26.000;2022-12-20T14:35:05;6.60;79.40
24426;DHT22;12611;44.446;26.000;2022-12-20T14:37:35;6.50;79.40
24426;DHT22;12611;44.446;26.000;2022-12-20T14:40:15;6.50;79.70
24426;DHT22;12611;44.446;26.000;2022-12-20T14:42:45;6.40;79.80
24426;DHT22;12611;44.446;26.000;2022-12-20T14:45:24;6.30;79.90
24426;DHT22;12611;44.446;26.000;2022-12-20T14:47:57;6.30;80.00
24426;DHT22;12611;44.446;26.000;2022-12-20T14:50:29;6.20;80.20
24426;DHT22;12611;44.446;26.000;2022-12-20T14:52:58;6.10;80.60
24426;DHT22;12611;44.446;26.000;2022-12-20T14:55:32;6.10;80.60
24426;DHT22;12611;44.446;26.000;2022-12-20T14:58:21;6.00;80.80
24426;DHT22;12611;44.446;26.000;2022-12-20T15:00:57;6.00;81.10
24426;DHT22;12611;44.446;26.000;2022-12-20T15:03:27;5.90;81.60
24426;DHT22;12611;44.446;26.000;2022-12-20T15:05:57;5.90;81.80
24426;DHT22;12611;44.446;26.000;2022-12-20T15:08:27;5.90;81.90
24426;DHT22;12611;44.446;26.000;2022-12-20T15:11:00;5.80;81.90
24426;DHT22;12611;44.446;26.000;2022-12-20T15:13:32;5.80;81.90
24426;DHT22;12611;44.446;26.000;2022-12-20T15:16:02;5.80;82.00
24426;DHT22;12611;44.446;26.000;2022-12-20T15:18:32;5.70;82.10
24426;DHT22;12611;44.446;26.000;2022-12-20T15:21:03;5.70;82.30
24426;DHT22;12611;44.446;26.000;2022-12-20T15:23:33;5.70;82.40
24426;DHT22;12611;44.446;26.000;2022-12-20T15:26:02;5.60;82.20
24426;DHT22;12611;44.446;26.000;2022-12-20T15:28:30;5.60;83.00
24426;DHT22;12611;44.446;26.000;2022-12-20T15:30:59;5.60;83.00
24426;DHT22;12611;44.446;26.000;2022-12-20T15:33:29;5.60;83.00
24426;DHT22;12611;44.446;26.000;2022-12-20T15:36:01;5.60;83.00
24426;DHT22;12611;44.446;26.000;2022-12-20T15:38:29;5.50;82.80
24426;DHT22;12611;44.446;26.000;2022-12-20T15:41:20;5.50;83.70
24426;DHT22;12611;44.446;26.000;2022-12-20T15:43:54;5.50;83.60
24426;DHT22;12611;44.446;26.000;2022-12-20T15:46:23;5.50;83.60
24426;DHT22;12611;44.446;26.000;2022-12-20T15:48:55;5.50;83.50
24426;DHT22;12611;44.446;26.000;2022-12-20T15:51:27;5.40;83.40
24426;DHT22;12611;44.446;26.000;2022-12-20T15:53:57;5.40;83.50
24426;DHT22;12611;44.446;26.000;2022-12-20T15:56:26;5.40;83.50
24426;DHT22;12611;44.446;26.000;2022-12-20T15:58:55;5.40;83.50
24426;DHT22;12611;44.446;26.000;2022-12-20T16:01:27;5.40;83.60
24426;DHT22;12611;44.446;26.000;2022-12-20T16:04:06;5.40;83.60
24426;DHT22;12611;44.446;26.000;2022-12-20T16:06:36;5.30;83.60
24426;DHT22;12611;44.446;26.000;2022-12-20T16:09:05;5.30;83.90
24426;DHT22;12611;44.446;26.000;2022-12-20T16:11:33;5.30;83.90
24426;DHT22;12611;44.446;26.000;2022-12-20T16:14:02;5.30;83.80
24426;DHT22;12611;44.446;26.000;2022-12-20T16:16:32;5.30;83.90
24426;DHT22;12611;44.446;26.000;2022-12-20T16:19:01;5.20;83.90
24426;DHT22;12611;44.446;26.000;2022-12-20T16:21:32;5.20;84.10
24426;DHT22;12611;44.446;26.000;2022-12-20T16:24:03;5.20;84.40
24426;DHT22;12611;44.446;26.000;2022-12-20T16:26:31;5.20;84.30
24426;DHT22;12611;44.446;26.000;2022-12-20T16:29:00;5.20;84.40